Flight Track Log - Related Links

Times and Time Zones

All times are in EDT time to prevent confusion due to time zone crossing. See the SWA3584 flight status page for this flight to view local times or setup timezone preferences in your user account.

Time Position Orientation Groundspeed Altitude Reporting Facility
EDT Latitude Longitude Course Direction KTS km/h meters Rate Location/Type
Fri 11:16:38 39.8833 -75.2167 87° East 168 311 335  Level Philadelphia TRACON
Fri 11:17:03 39.8842 -75.1947 87° East 179 332 457 366 Climbing FAA TRACON SMA TRACON (SMA)
Fri 11:17:23 39.8956 -75.1681 61° Northeast 220 407 610 503 Climbing FAA TRACON SMA TRACON (SMA)
Fri 11:17:43 39.9036 -75.1433 67° East 250 463 792 640 Climbing FAA TRACON SMA TRACON (SMA)
Fri 11:18:03 39.9139 -75.1161 64° Northeast 269 499 1,036 823 Climbing FAA TRACON SMA TRACON (SMA)
Fri 11:18:23 39.9278 -75.0839 61° Northeast 277 513 1,341 823 Climbing FAA TRACON SMA TRACON (SMA)
Fri 11:18:43 39.9492 -75.0711 25° Northeast 276 512 1,585 686 Climbing FAA TRACON SMA TRACON (SMA)
Fri 11:19:03 39.9708 -75.0764 349° North 254 470 1,798 366 Climbing FAA TRACON SMA TRACON (SMA)
Fri 11:19:23 39.9989 -75.0853 346° North 260 481 1,829 46 Climbing FAA TRACON SMA TRACON (SMA)
Fri 11:19:43 40.0208 -75.0931 345° North 266 492 1,829  Level FAA TRACON SMA TRACON (SMA)
Fri 11:20:03 40.0408 -75.1033 339° North 260 481 1,829 91 Level FAA TRACON SMA TRACON (SMA)
Fri 11:20:23 40.0578 -75.1308 309° West 252 467 1,890 411 Climbing FAA TRACON SMA TRACON (SMA)
Fri 11:20:43 40.0706 -75.1536 306° West 263 488 2,103 869 Climbing FAA TRACON SMA TRACON (SMA)
Fri 11:21:03 40.0875 -75.1842 306° West 267 494 2,469 960 Climbing FAA TRACON SMA TRACON (SMA)
Fri 11:21:23 40.0994 -75.2106 301° West 278 515 2,743 777 Climbing FAA TRACON SMA TRACON (SMA)
Fri 11:21:43 40.0953 -75.2378 259° West 243 451 2,987 457 Climbing FAA TRACON SMA TRACON (SMA)
Fri 11:22:03 40.0806 -75.2683 238° Southwest 278 515 3,048 91 Climbing FAA TRACON SMA TRACON (SMA)
Fri 11:22:23 40.0686 -75.2964 241° Southwest 295 546 3,048  Level FAA TRACON SMA TRACON (SMA)
Fri 11:22:43 40.0561 -75.3278 243° Southwest 302 560 3,048  Level FAA TRACON SMA TRACON (SMA)
Fri 11:23:03 40.0419 -75.3667 245° Southwest 309 573 3,048  Level FAA TRACON SMA TRACON (SMA)
Fri 11:23:23 40.0372 -75.4014 260° West 329 610 3,048  Level FAA TRACON SMA TRACON (SMA)
Fri 11:23:43 40.0350 -75.4361 265° West 313 579 3,048  Level FAA TRACON SMA TRACON (SMA)
Fri 11:24:03 40.0317 -75.4775 264° West 317 587 3,048  Level FAA TRACON SMA TRACON (SMA)
Fri 11:24:23 40.0294 -75.5147 266° West 315 583 3,048 91 Level FAA TRACON SMA TRACON (SMA)
Fri 11:24:43 40.0261 -75.5492 263° West 313 579 3,109 823 Climbing FAA TRACON SMA TRACON (SMA)
Fri 11:25:03 40.0228 -75.5914 264° West 307 568 3,597 1,143 Climbing FAA TRACON SMA TRACON (SMA)
Fri 11:25:23 40.0200 -75.6225 263° West 289 536 3,871 686 Climbing FAA TRACON SMA TRACON (SMA)
Fri 11:25:43 40.0175 -75.6556 264° West 294 544 4,054 640 Climbing FAA TRACON SMA TRACON (SMA)
Fri 11:26:03 40.0142 -75.6981 264° West 305 565 4,298 823 Climbing FAA TRACON SMA TRACON (SMA)
Fri 11:26:23 40.0111 -75.7308 263° West 306 566 4,602 914 Climbing FAA TRACON SMA TRACON (SMA)
Fri 11:26:43 40.0086 -75.7658 265° West 304 563 4,907 869 Climbing FAA TRACON SMA TRACON (SMA)
Fri 11:27:03 40.0050 -75.8075 264° West 302 560 5,182 686 Climbing FAA TRACON SMA TRACON (SMA)
Fri 11:27:23 40.0022 -75.8414 264° West 305 565 5,364 549 Climbing FAA TRACON SMA TRACON (SMA)
Fri 11:27:43 39.9989 -75.8747 263° West 308 570 5,547 274 Climbing FAA TRACON SMA TRACON (SMA)
Fri 11:28:03 39.9989 -75.8747 237° Southwest 308 570 5,547 492 Level FAA TRACON SMA TRACON (SMA)
Fri 11:29:42 39.9842 -76.1108 265° West 326 604 6,523 483 Climbing New York Center
Fri 11:30:42 39.9683 -76.2342 261° West 362 671 6,828 369 Climbing New York Center
Fri 11:31:41 39.9553 -76.3767 263° West 388 719 7,254 536 Climbing New York Center
Fri 11:33:36 39.8694 -76.6403 247° West 378 700 8,382 606 Climbing Washington Center
Fri 11:34:36 39.8206 -76.7639 243° Southwest 383 710 9,022 533 Climbing Washington Center
Fri 11:35:36 39.7733 -76.8819 243° Southwest 378 700 9,449 427 Climbing Washington Center
Fri 11:36:36 39.7306 -76.9892 243° Southwest 378 700 9,876 457 Climbing Washington Center
Fri 11:37:36 39.6833 -77.1122 244° Southwest 368 681 10,363 320 Climbing Washington Center
Fri 11:38:36 39.6358 -77.2272 242° Southwest 363 673 10,516 213 Climbing Washington Center
Fri 11:39:36 39.5947 -77.3339 243° Southwest 363 673 10,790 229 Climbing Washington Center
Fri 11:40:36 39.5450 -77.4564 242° Southwest 363 673 10,973 91 Climbing Washington Center
Fri 11:41:36 39.5039 -77.5575 242° Southwest 363 673 10,973  Level Washington Center
Fri 11:42:36 39.4539 -77.6828 243° Southwest 363 673 10,973  Level Washington Center
Fri 11:43:36 39.4125 -77.7861 243° Southwest 363 673 10,973  Level Washington Center
Fri 11:44:36 39.3706 -77.9003 245° Southwest 362 671 10,973  Level Washington Center
Fri 11:45:36 39.3267 -78.0144 244° Southwest 362 671 10,973  Level Washington Center
Fri 11:46:36 39.2678 -78.1411 239° Southwest 373 690 10,973  Level Washington Center
Fri 11:47:36 39.2239 -78.2519 243° Southwest 363 673 10,973  Level Washington Center
Fri 11:48:36 39.1775 -78.3681 243° Southwest 363 673 10,973  Level Washington Center
Fri 11:49:36 39.1331 -78.4789 243° Southwest 363 673 10,973  Level Washington Center
Fri 11:50:36 39.0864 -78.5947 243° Southwest 363 673 10,973  Level Washington Center
Fri 11:51:36 39.0439 -78.7133 245° Southwest 368 681 10,973  Level Washington Center
Fri 11:52:36 38.9992 -78.8261 243° Southwest 368 681 10,973  Level Washington Center
Fri 11:53:36 38.9483 -78.9333 239° Southwest 360 666 10,973  Level Washington Center
Fri 11:54:36 38.9014 -79.0486 242° Southwest 355 658 10,973  Level Washington Center
Fri 11:55:36 38.8628 -79.1536 245° Southwest 355 658 10,973  Level Washington Center
Fri 11:56:36 38.8300 -79.2692 250° West 356 660 10,973  Level Washington Center
Fri 11:57:36 38.8072 -79.4039 258° West 350 649 10,973  Level Washington Center
Fri 11:58:36 38.7844 -79.5278 257° West 356 660 10,973  Level Washington Center
Fri 11:59:36 38.7636 -79.6492 258° West 356 660 10,973  Level Washington Center
Fri 12:00:36 38.7408 -79.7678 256° West 356 660 10,973  Level Washington Center
Fri 12:01:36 38.7222 -79.8786 258° West 356 660 10,973  Level Washington Center
Fri 12:02:37 38.6972 -79.9969 255° West 356 660 10,973  Level Washington Center
Fri 12:04:23 38.6558 -80.2006 255° West 348 644 10,973  Level Indianapolis Center
Fri 12:05:25 38.6339 -80.3200 257° West 345 639 10,973  Level Indianapolis Center
Fri 12:06:26 38.6147 -80.4406 259° West 348 644 10,973  Level Indianapolis Center
Fri 12:07:28 38.6078 -80.5869 267° West 344 637 10,973  Level Indianapolis Center
Fri 12:08:29 38.6017 -80.7094 266° West 345 639 10,973  Level Indianapolis Center
Fri 12:09:31 38.5956 -80.8311 266° West 343 636 10,973  Level Indianapolis Center
Fri 12:10:32 38.5894 -80.9547 266° West 346 641 10,973  Level Indianapolis Center
Fri 12:11:34 38.5839 -81.0756 267° West 341 631 10,973  Level Indianapolis Center
Fri 12:12:35 38.5797 -81.1992 268° West 345 639 10,973  Level Indianapolis Center
Fri 12:13:37 38.5753 -81.3217 267° West 343 636 10,973  Level Indianapolis Center
Fri 12:14:38 38.5553 -81.4403 258° West 345 639 10,973  Level Indianapolis Center
Fri 12:15:40 38.5125 -81.5483 243° Southwest 336 623 10,973  Level Indianapolis Center
Fri 12:16:42 38.4697 -81.6553 243° Southwest 334 618 10,973  Level Indianapolis Center
Fri 12:17:43 38.4258 -81.7614 242° Southwest 334 618 10,973  Level Indianapolis Center
Fri 12:18:45 38.3839 -81.8658 243° Southwest 331 613 10,973  Level Indianapolis Center
Fri 12:19:46 38.3317 -81.9911 242° Southwest 333 616 10,973  Level Indianapolis Center
Fri 12:20:48 38.2897 -82.0967 243° Southwest 333 616 10,973  Level Indianapolis Center
Fri 12:21:50 38.2456 -82.2003 242° Southwest 333 616 10,973  Level Indianapolis Center
Fri 12:22:51 38.2022 -82.3047 242° Southwest 334 618 10,973  Level Indianapolis Center
Fri 12:23:53 38.1575 -82.4078 241° Southwest 332 615 10,973  Level Indianapolis Center
Fri 12:24:54 38.1136 -82.5056 240° Southwest 331 613 10,973  Level Indianapolis Center
Fri 12:25:56 38.0597 -82.6222 240° Southwest 329 610 10,973  Level Indianapolis Center
Fri 12:26:58 38.0144 -82.7233 240° Southwest 329 610 10,973  Level Indianapolis Center
Fri 12:27:59 37.9692 -82.8244 240° Southwest 330 612 10,973  Level Indianapolis Center
Fri 12:29:01 37.9225 -82.9258 240° Southwest 333 616 10,973  Level Indianapolis Center
Fri 12:30:02 37.8767 -83.0264 240° Southwest 330 612 10,973 -59 Level Indianapolis Center
Fri 12:31:04 37.8306 -83.1269 240° Southwest 330 612 10,851 -236 Descending Indianapolis Center
Fri 12:32:06 37.7772 -83.2447 240° Southwest 331 613 10,485 -238 Descending Indianapolis Center
Fri 12:33:07 37.7306 -83.3458 240° Southwest 333 616 10,363 -59 Descending Indianapolis Center
Fri 12:34:09 37.6825 -83.4478 239° Southwest 337 624 10,363  Level Indianapolis Center
Fri 12:35:11 37.6356 -83.5503 240° Southwest 336 623 10,363  Level Indianapolis Center
Fri 12:36:12 37.5878 -83.6522 239° Southwest 338 626 10,363 -15 Level Indianapolis Center
Fri 12:37:14 37.5414 -83.7519 240° Southwest 333 616 10,333 -148 Descending Indianapolis Center
Fri 12:38:16 37.4939 -83.8544 240° Southwest 336 623 10,058 -134 Descending Indianapolis Center
Fri 12:39:17 37.4369 -83.9744 239° Southwest 341 631 10,058  Level Indianapolis Center
Fri 12:40:19 37.3881 -84.0781 239° Southwest 343 636 10,058  Level Indianapolis Center
Fri 12:41:21 37.3392 -84.1817 239° Southwest 345 639 10,058 -118 Level Indianapolis Center
Fri 12:42:23 37.2894 -84.2850 239° Southwest 346 641 9,815 -149 Descending Indianapolis Center
Fri 12:43:24 37.2408 -84.3892 240° Southwest 346 641 9,754 -30 Descending Indianapolis Center
Fri 12:44:26 37.1922 -84.4922 239° Southwest 343 636 9,754 -148 Level Indianapolis Center
Fri 12:45:28 37.1333 -84.6119 238° Southwest 344 637 9,449 -295 Descending Indianapolis Center
Fri 12:46:30 37.0839 -84.7175 240° Southwest 352 652 9,144 -280 Descending Indianapolis Center
Fri 12:47:32 37.0328 -84.8214 238° Southwest 355 658 8,870 -280 Descending Indianapolis Center
Fri 12:48:34 36.9828 -84.9264 239° Southwest 353 653 8,565 -297 Descending Indianapolis Center
Fri 12:49:35 36.9308 -85.0333 239° Southwest 359 665 8,260 -327 Descending Indianapolis Center
Fri 12:50:37 36.8706 -85.1581 239° Southwest 352 652 7,894 -325 Descending Indianapolis Center
Fri 12:51:39 36.8203 -85.2592 238° Southwest 346 641 7,590 -457 Descending Indianapolis Center
Fri 12:52:41 36.7717 -85.3575 238° Southwest 335 621 6,949 -520 Descending Indianapolis Center
Fri 12:53:21 36.7417 -85.4142 237° Southwest 347 642 6,706 -148 Descending Memphis Center
Fri 12:54:20 36.6958 -85.5206 242° Southwest 336 623 6,706  Level Memphis Center
Fri 12:55:20 36.6514 -85.6086 238° Southwest 331 613 6,706 -60 Level Memphis Center
Fri 12:56:21 36.6050 -85.7069 240° Southwest 331 613 6,584 -302 Descending Memphis Center
Fri 12:57:21 36.5625 -85.7997 240° Southwest 319 591 6,096 -415 Descending Memphis Center
Fri 12:58:20 36.5181 -85.8925 239° Southwest 312 578 5,761 -457 Descending Memphis Center
Fri 12:59:21 36.4794 -85.9772 240° Southwest 300 555 5,182 -594 Descending Memphis Center
Fri 13:00:20 36.4344 -86.0650 238° Southwest 297 550 4,572 -615 Descending Memphis Center
Fri 13:01:20 36.3939 -86.1547 241° Southwest 302 560 3,962 -544 Descending Memphis Center
Fri 13:02:21 36.3586 -86.2286 239° Southwest 297 550 3,475 -442 Descending Memphis Center
Fri 13:03:20 36.3197 -86.3078 239° Southwest 292 541 3,078 -354 Descending Memphis Center
Fri 13:04:20 36.2844 -86.3792 239° Southwest 267 494 2,774 -347 Descending Memphis Center
Fri 13:05:21 36.2531 -86.4450 239° Southwest 240 444 2,377 -396 Descending Memphis Center
Fri 13:06:20 36.2197 -86.5108 238° Southwest 235 435 1,981 -338 Descending Memphis Center
Fri 13:07:20 36.1542 -86.5475 204° Southwest 228 422 1,707 -287 Descending Memphis Center
Fri 13:08:21 36.0922 -86.5683 195° South 233 431 1,402 -244 Descending Memphis Center
Fri 13:09:20 36.0558 -86.6061 220° Southwest 181 335 1,219 -369 Descending Memphis Center
Fri 13:10:20 36.0594 -86.6572 275° West 139 257 671 -442 Descending Memphis Center
Fri 13:11:20 36.0914 -86.6764 334° Northwest 118 219 335 -229 Descending Memphis Center
Fri 13:12:20 36.1189 -86.6853 345° North 112 208 213 -122 Descending Memphis Center
Fri 13:14:00 36.1167 -86.6667 287° West  Level FlightAware Approximate
Fri 13:21:00 36.1245 -86.6782 287° West  Level Estimated
Fri 13:22:00 36.1245 -86.6782 287° West  Level Estimated
Fri 13:23:00 36.1245 -86.6782 287° West  Level Estimated
Fri 13:24:00 36.1245 -86.6782 287° West  Level Estimated
Fri 13:25:00 36.1245 -86.6782 287° West  Level Estimated

Login

Don't have an account? Register now (free) for customized features, flight alerts, and more!